Time;durP1;ratioP1;P1;durP2;ratioP2;P2;SDS_P1;SDS_P2;PMS_P1;PMS_P2;Temp;Humidity;BMP_temperature;BMP_pressure;BME280_temperature;BME280_humidity;BME280_pressure;Samples;Min_cycle;Max_cycle;Signal;HPM_P1;HPM_P2
2023/10/03 00:00:58;;;;;;;23.77;14.33;;;;;;;;;;5007110;28;20579;-57
2023/10/03 00:03:25;;;;;;;21.23;14.27;;;;;;;;;;5006273;28;20175;-57
2023/10/03 00:05:51;;;;;;;23.40;14.00;;;;;;;;;;5008147;28;20167;-57
2023/10/03 00:08:18;;;;;;;22.27;14.07;;;;;;;;;;5007367;28;20204;-57
2023/10/03 00:10:45;;;;;;;20.13;13.03;;;;;;;;;;5007910;28;20670;-56
2023/10/03 00:13:12;;;;;;;19.23;13.50;;;;;;;;;;5007381;28;20194;-56
2023/10/03 00:15:39;;;;;;;21.70;13.97;;;;;;;;;;5006805;28;20729;-56
2023/10/03 00:18:06;;;;;;;23.07;14.30;;;;;;;;;;5007494;28;20181;-56
2023/10/03 00:20:32;;;;;;;20.40;12.70;;;;;;;;;;5008065;28;20898;-56
2023/10/03 00:22:58;;;;;;;20.73;13.77;;;;;;;;;;5004441;28;20197;-56
2023/10/03 00:25:25;;;;;;;18.07;12.60;;;;;;;;;;5003145;28;20661;-56
2023/10/03 00:27:55;;;;;;;23.27;13.10;;;;;;;;;;5007071;28;20214;-56
2023/10/03 00:30:23;;;;;;;19.17;13.87;;;;;;;;;;5005612;28;20193;-56
2023/10/03 00:32:51;;;;;;;21.13;14.03;;;;;;;;;;5003256;28;20679;-55
2023/10/03 00:35:19;;;;;;;20.90;13.30;;;;;;;;;;5011622;28;20610;-55
2023/10/03 00:37:46;;;;;;;19.70;13.60;;;;;;;;;;5009975;28;20186;-55
2023/10/03 00:42:48;;;;;;;18.93;12.77;;;;;;;;;;4994547;28;21154;-55
2023/10/03 00:45:24;;;;;;;21.47;14.60;;;;;;;;;;5010901;28;20280;-55
2023/10/03 00:47:54;;;;;;;22.97;13.50;;;;;;;;;;5010725;28;20186;-56
2023/10/03 00:50:23;;;;;;;23.30;13.67;;;;;;;;;;5011063;28;20186;-55
2023/10/03 00:52:50;;;;;;;21.80;13.70;;;;;;;;;;5011397;28;20212;-56
2023/10/03 00:55:16;;;;;;;20.67;14.07;;;;;;;;;;5010829;28;20191;-56
2023/10/03 00:57:43;;;;;;;21.07;13.03;;;;;;;;;;5011082;28;20615;-55
2023/10/03 01:00:16;;;;;;;20.07;13.23;;;;;;;;;;5010896;28;20599;-55
2023/10/03 01:02:50;;;;;;;19.50;12.97;;;;;;;;;;5008390;28;20558;-55
2023/10/03 01:05:16;;;;;;;23.50;14.03;;;;;;;;;;5004347;28;20235;-56
2023/10/03 01:07:46;;;;;;;22.13;12.93;;;;;;;;;;5010199;28;20194;-57
2023/10/03 01:10:17;;;;;;;21.40;13.23;;;;;;;;;;5011206;28;20211;-55
2023/10/03 01:12:44;;;;;;;26.23;14.33;;;;;;;;;;5002921;28;20267;-57
2023/10/03 01:15:16;;;;;;;22.57;14.27;;;;;;;;;;5010029;28;20266;-55
2023/10/03 01:17:43;;;;;;;22.20;14.13;;;;;;;;;;5010562;28;20181;-55
2023/10/03 01:20:34;;;;;;;21.00;14.23;;;;;;;;;;5011636;28;20195;-57
2023/10/03 01:23:01;;;;;;;21.73;13.73;;;;;;;;;;4990139;28;20710;-55
2023/10/03 01:25:27;;;;;;;23.80;14.00;;;;;;;;;;5010346;28;20178;-57
2023/10/03 01:27:57;;;;;;;24.40;13.40;;;;;;;;;;5010717;28;20182;-55
2023/10/03 01:30:23;;;;;;;20.20;13.60;;;;;;;;;;5008019;28;20327;-57
2023/10/03 01:32:52;;;;;;;20.97;13.20;;;;;;;;;;5007923;28;20210;-56
2023/10/03 01:35:18;;;;;;;;;;;;;;;;;;5011172;28;20216;-56
2023/10/03 01:37:45;;;;;;;;;;;;;;;;;;5010675;28;20511;-57
2023/10/03 01:40:16;;;;;;;;;;;;;;;;;;5010913;28;20022;-57
2023/10/03 01:42:45;;;;;;;;;;;;;;;;;;5010901;28;20071;-56
2023/10/03 01:45:18;;;;;;;21.20;13.40;;;;;;;;;;5009340;28;20172;-57
2023/10/03 01:47:45;;;;;;;18.00;12.33;;;;;;;;;;5010301;28;20184;-56
2023/10/03 01:50:15;;;;;;;19.10;12.80;;;;;;;;;;5010112;28;20616;-56
2023/10/03 01:52:41;;;;;;;18.93;11.97;;;;;;;;;;5008618;28;20561;-57
2023/10/03 01:55:12;;;;;;;20.60;13.60;;;;;;;;;;5001651;28;20289;-56
2023/10/03 01:57:39;;;;;;;21.20;12.90;;;;;;;;;;5008985;28;20211;-57
2023/10/03 02:00:11;;;;;;;22.90;13.07;;;;;;;;;;5009047;28;20184;-58
2023/10/03 02:02:37;;;;;;;23.33;15.48;;;;;;;;;;5007886;28;20423;-57
2023/10/03 02:05:04;;;;;;;19.10;13.47;;;;;;;;;;5010223;28;20606;-57
2023/10/03 02:07:30;;;;;;;18.60;12.43;;;;;;;;;;5007693;28;20210;-57
2023/10/03 02:09:56;;;;;;;19.90;13.40;;;;;;;;;;5010380;28;20268;-57
2023/10/03 02:12:22;;;;;;;21.27;12.77;;;;;;;;;;5009980;28;20182;-55
2023/10/03 02:14:49;;;;;;;21.40;13.77;;;;;;;;;;5008978;28;20708;-55
2023/10/03 02:17:17;;;;;;;19.57;13.23;;;;;;;;;;5009143;28;20255;-56
2023/10/03 02:19:43;;;;;;;25.43;13.90;;;;;;;;;;5010795;28;20175;-55
2023/10/03 02:22:11;;;;;;;22.47;13.43;;;;;;;;;;5007340;28;20329;-57
2023/10/03 02:24:38;;;;;;;20.33;14.07;;;;;;;;;;5009765;28;20642;-55
2023/10/03 02:27:06;;;;;;;19.83;12.17;;;;;;;;;;5009690;28;20697;-55
2023/10/03 02:29:32;;;;;;;18.50;12.70;;;;;;;;;;5008971;28;20178;-56
2023/10/03 02:32:07;;;;;;;18.37;13.13;;;;;;;;;;5009472;28;20190;-55
2023/10/03 02:34:33;;;;;;;19.93;13.37;;;;;;;;;;5004752;28;20198;-56
2023/10/03 02:37:00;;;;;;;20.20;12.83;;;;;;;;;;5008268;28;20185;-57
2023/10/03 02:39:35;;;;;;;19.40;13.27;;;;;;;;;;5009387;28;20175;-57
2023/10/03 02:42:04;;;;;;;20.47;12.90;;;;;;;;;;5009816;28;20182;-56
2023/10/03 02:44:32;;;;;;;19.00;13.13;;;;;;;;;;5009347;28;20206;-57
2023/10/03 02:46:58;;;;;;;19.17;13.43;;;;;;;;;;5008269;28;20182;-56
2023/10/03 02:49:24;;;;;;;18.33;13.23;;;;;;;;;;5007633;28;20661;-56
2023/10/03 02:51:50;;;;;;;17.73;12.17;;;;;;;;;;4983342;28;20186;-58
2023/10/03 02:54:16;;;;;;;21.10;13.73;;;;;;;;;;5008236;28;20202;-59
2023/10/03 02:56:42;;;;;;;21.23;13.30;;;;;;;;;;5008328;28;20544;-61
2023/10/03 02:59:08;;;;;;;18.77;12.30;;;;;;;;;;5008026;28;20179;-58
2023/10/03 03:01:35;;;;;;;22.33;13.30;;;;;;;;;;5008394;28;20818;-60
2023/10/03 03:04:03;;;;;;;19.53;12.47;;;;;;;;;;5009603;28;20183;-60
2023/10/03 03:06:31;;;;;;;18.30;12.00;;;;;;;;;;5008632;28;20642;-60
2023/10/03 03:08:57;;;;;;;18.27;12.57;;;;;;;;;;5007809;28;20190;-59
2023/10/03 03:11:23;;;;;;;16.70;12.03;;;;;;;;;;5009139;28;20634;-60
2023/10/03 03:13:49;;;;;;;20.30;13.13;;;;;;;;;;5006368;28;20229;-59
2023/10/03 03:16:15;;;;;;;19.87;12.57;;;;;;;;;;5008019;28;20292;-59
2023/10/03 03:18:43;;;;;;;18.57;12.87;;;;;;;;;;5008802;28;20226;-59
2023/10/03 03:21:13;;;;;;;20.20;13.07;;;;;;;;;;5008386;28;20462;-59
2023/10/03 03:23:42;;;;;;;17.50;12.27;;;;;;;;;;5007955;28;20263;-59
2023/10/03 03:26:20;;;;;;;22.93;13.97;;;;;;;;;;5008223;28;20650;-58
2023/10/03 03:28:49;;;;;;;16.77;12.23;;;;;;;;;;5007801;28;20592;-59
2023/10/03 03:31:22;;;;;;;20.47;12.80;;;;;;;;;;5006180;28;20639;-59
2023/10/03 03:33:51;;;;;;;19.77;11.50;;;;;;;;;;5006787;28;20202;-59
2023/10/03 03:36:21;;;;;;;19.77;13.20;;;;;;;;;;5008476;28;20182;-60
2023/10/03 03:38:49;;;;;;;20.97;12.77;;;;;;;;;;5004773;28;20179;-58
2023/10/03 03:41:15;;;;;;;17.87;12.20;;;;;;;;;;5005948;28;20190;-57
2023/10/03 03:43:42;;;;;;;19.97;12.53;;;;;;;;;;5001788;28;20618;-60
2023/10/03 03:46:09;;;;;;;21.43;11.83;;;;;;;;;;5008932;28;20241;-58
2023/10/03 03:48:36;;;;;;;19.57;13.47;;;;;;;;;;5006110;28;20549;-58
2023/10/03 03:51:03;;;;;;;20.80;12.53;;;;;;;;;;5006655;28;20182;-59
2023/10/03 03:53:31;;;;;;;19.87;13.37;;;;;;;;;;5007991;28;20270;-58
2023/10/03 03:55:58;;;;;;;18.07;11.40;;;;;;;;;;5007736;28;20710;-59
2023/10/03 03:58:24;;;;;;;18.57;12.90;;;;;;;;;;5007824;28;20286;-57
2023/10/03 04:00:51;;;;;;;22.43;13.17;;;;;;;;;;5007551;28;20190;-57
2023/10/03 04:03:18;;;;;;;17.80;13.03;;;;;;;;;;5007876;28;20229;-54
2023/10/03 04:05:46;;;;;;;20.20;11.97;;;;;;;;;;5007404;28;20178;-54
2023/10/03 04:08:12;;;;;;;20.23;13.93;;;;;;;;;;5006829;28;20644;-54
2023/10/03 04:10:38;;;;;;;19.03;12.90;;;;;;;;;;5007229;28;20657;-56
2023/10/03 04:13:08;;;;;;;18.50;11.93;;;;;;;;;;5006815;28;20569;-54
2023/10/03 04:15:34;;;;;;;21.90;12.83;;;;;;;;;;5006895;28;20268;-56
2023/10/03 04:18:00;;;;;;;20.33;12.33;;;;;;;;;;5005063;28;20195;-56
2023/10/03 04:20:35;;;;;;;17.57;11.60;;;;;;;;;;5007735;28;20473;-56
2023/10/03 04:23:03;;;;;;;19.10;11.87;;;;;;;;;;5006401;28;20246;-56
2023/10/03 04:25:30;;;;;;;17.97;11.90;;;;;;;;;;5006329;28;20786;-55
2023/10/03 04:27:56;;;;;;;18.17;11.77;;;;;;;;;;5007682;28;20190;-54
2023/10/03 04:30:26;;;;;;;17.90;12.20;;;;;;;;;;5005810;28;20196;-54
2023/10/03 04:32:56;;;;;;;19.30;11.63;;;;;;;;;;5003810;28;20226;-55
2023/10/03 04:35:23;;;;;;;17.40;11.50;;;;;;;;;;5004439;28;20739;-55
2023/10/03 04:37:51;;;;;;;16.53;11.87;;;;;;;;;;5006229;28;20184;-54
2023/10/03 04:40:22;;;;;;;15.20;10.73;;;;;;;;;;5008089;28;20188;-55
2023/10/03 04:42:53;;;;;;;17.83;11.57;;;;;;;;;;5007293;28;20209;-55
2023/10/03 04:45:20;;;;;;;16.93;10.87;;;;;;;;;;5000201;28;20189;-55
2023/10/03 04:47:47;;;;;;;17.53;11.23;;;;;;;;;;5006313;28;20185;-55
2023/10/03 04:50:24;;;;;;;14.30;9.67;;;;;;;;;;5006338;28;20176;-54
2023/10/03 04:52:50;;;;;;;17.90;10.43;;;;;;;;;;5002910;28;20233;-53
2023/10/03 04:55:17;;;;;;;17.20;10.53;;;;;;;;;;5006296;28;20185;-54
2023/10/03 04:57:45;;;;;;;14.97;9.80;;;;;;;;;;4987987;28;20181;-54
2023/10/03 05:00:11;;;;;;;18.47;11.63;;;;;;;;;;5004247;28;20287;-56
2023/10/03 05:02:37;;;;;;;17.77;10.90;;;;;;;;;;5001087;28;20191;-54
2023/10/03 05:05:04;;;;;;;14.57;10.50;;;;;;;;;;5004898;28;20184;-54
2023/10/03 05:07:30;;;;;;;16.53;9.93;;;;;;;;;;5003568;28;20584;-54
2023/10/03 05:09:56;;;;;;;17.60;10.77;;;;;;;;;;5005525;28;20457;-54
2023/10/03 05:12:24;;;;;;;17.37;10.60;;;;;;;;;;5004442;28;20232;-57
2023/10/03 05:14:51;;;;;;;15.37;10.20;;;;;;;;;;5006159;28;20233;-57
2023/10/03 05:17:17;;;;;;;14.83;10.03;;;;;;;;;;5006592;28;20211;-57
2023/10/03 05:19:43;;;;;;;13.13;9.33;;;;;;;;;;5007811;28;20199;-57
2023/10/03 05:22:09;;;;;;;15.03;10.97;;;;;;;;;;5009629;28;20184;-55
2023/10/03 05:24:36;;;;;;;19.17;10.10;;;;;;;;;;5006739;28;20201;-57
2023/10/03 05:27:04;;;;;;;17.57;10.17;;;;;;;;;;5007831;28;20192;-56
2023/10/03 05:29:30;;;;;;;14.57;9.63;;;;;;;;;;5002417;28;20190;-57
2023/10/03 05:32:00;;;;;;;14.17;9.70;;;;;;;;;;5001841;28;20177;-57
2023/10/03 05:34:26;;;;;;;14.77;10.00;;;;;;;;;;5005265;28;20671;-57
2023/10/03 05:36:53;;;;;;;13.90;8.67;;;;;;;;;;5008896;28;20235;-57
2023/10/03 05:39:19;;;;;;;13.93;9.23;;;;;;;;;;5009560;28;20178;-57
2023/10/03 05:41:45;;;;;;;13.87;8.57;;;;;;;;;;5005842;28;20544;-57
2023/10/03 05:44:12;;;;;;;14.73;9.43;;;;;;;;;;4988965;28;20340;-56
2023/10/03 05:46:38;;;;;;;15.53;9.60;;;;;;;;;;5008052;28;20660;-55
2023/10/03 05:49:05;;;;;;;14.93;10.30;;;;;;;;;;5010144;28;20545;-56
2023/10/03 05:51:31;;;;;;;13.27;7.63;;;;;;;;;;5004990;28;20181;-55
2023/10/03 05:53:57;;;;;;;14.77;9.30;;;;;;;;;;5009297;28;20667;-55
2023/10/03 05:56:23;;;;;;;14.97;9.53;;;;;;;;;;5008510;28;20247;-56
2023/10/03 05:58:49;;;;;;;11.73;8.57;;;;;;;;;;5004208;28;20188;-56
2023/10/03 06:01:16;;;;;;;15.67;9.33;;;;;;;;;;5009858;28;20174;-56
2023/10/03 06:03:42;;;;;;;14.50;8.53;;;;;;;;;;5009162;28;20569;-55
2023/10/03 06:06:08;;;;;;;11.03;8.73;;;;;;;;;;5009449;28;20212;-55
2023/10/03 06:08:34;;;;;;;14.20;9.67;;;;;;;;;;5010380;28;20251;-56
2023/10/03 06:11:03;;;;;;;12.10;8.07;;;;;;;;;;5008850;28;20717;-56
2023/10/03 06:13:29;;;;;;;13.97;8.50;;;;;;;;;;5010449;28;20203;-56
2023/10/03 06:15:59;;;;;;;15.80;8.60;;;;;;;;;;5009493;28;20223;-57
2023/10/03 06:18:27;;;;;;;13.63;8.40;;;;;;;;;;5010039;28;20524;-56
2023/10/03 06:20:53;;;;;;;13.70;9.10;;;;;;;;;;5009612;28;20267;-56
2023/10/03 06:23:19;;;;;;;13.47;8.83;;;;;;;;;;5007115;28;20208;-54
2023/10/03 06:25:45;;;;;;;9.93;7.27;;;;;;;;;;5008188;28;20222;-55
2023/10/03 06:28:11;;;;;;;13.47;8.90;;;;;;;;;;5006148;28;20221;-54
2023/10/03 06:30:37;;;;;;;11.57;7.77;;;;;;;;;;5009471;28;20194;-54
2023/10/03 06:33:05;;;;;;;14.53;8.57;;;;;;;;;;5009235;28;20213;-54
2023/10/03 06:35:32;;;;;;;13.00;8.10;;;;;;;;;;5009592;28;20187;-54
2023/10/03 06:37:58;;;;;;;11.60;7.50;;;;;;;;;;5007555;28;20221;-54
2023/10/03 06:40:24;;;;;;;9.40;7.50;;;;;;;;;;5009653;28;20646;-53
2023/10/03 06:42:50;;;;;;;13.77;7.50;;;;;;;;;;5003429;28;20186;-54
2023/10/03 06:45:16;;;;;;;10.70;7.53;;;;;;;;;;4992075;28;20178;-54
2023/10/03 06:47:42;;;;;;;11.90;7.23;;;;;;;;;;5004501;28;20712;-53
2023/10/03 06:50:08;;;;;;;10.30;7.00;;;;;;;;;;5007187;28;20266;-53
2023/10/03 06:52:35;;;;;;;13.30;7.37;;;;;;;;;;5002936;28;20639;-53
2023/10/03 06:55:03;;;;;;;13.03;7.37;;;;;;;;;;5006764;28;20688;-53
2023/10/03 06:57:29;;;;;;;14.73;8.83;;;;;;;;;;5008336;28;20182;-53
2023/10/03 06:59:56;;;;;;;18.27;10.33;;;;;;;;;;5004545;28;20175;-53
2023/10/03 07:02:22;;;;;;;12.47;7.77;;;;;;;;;;5005804;28;20232;-55
2023/10/03 07:04:48;;;;;;;15.77;8.60;;;;;;;;;;5009399;28;20721;-54
2023/10/03 07:07:14;;;;;;;11.80;6.60;;;;;;;;;;5008062;28;20190;-55
2023/10/03 07:09:40;;;;;;;10.80;7.97;;;;;;;;;;5009004;28;20225;-55
2023/10/03 07:12:09;;;;;;;14.77;7.93;;;;;;;;;;5006569;28;20801;-54
2023/10/03 07:14:36;;;;;;;9.90;6.40;;;;;;;;;;5007374;28;20736;-54
2023/10/03 07:17:05;;;;;;;7.77;5.83;;;;;;;;;;5006580;28;20622;-55
2023/10/03 07:19:32;;;;;;;9.27;5.93;;;;;;;;;;5005560;28;20224;-54
2023/10/03 07:21:58;;;;;;;10.80;5.90;;;;;;;;;;5002041;28;20221;-53
2023/10/03 07:24:29;;;;;;;12.73;6.77;;;;;;;;;;5006311;28;20314;-56
2023/10/03 07:26:55;;;;;;;9.70;6.10;;;;;;;;;;5008062;28;20654;-55
2023/10/03 07:29:21;;;;;;;9.13;5.77;;;;;;;;;;5009078;28;20201;-56
2023/10/03 07:31:48;;;;;;;9.00;6.20;;;;;;;;;;5006427;28;20187;-56
2023/10/03 07:34:17;;;;;;;9.67;5.73;;;;;;;;;;5006985;28;20968;-57
2023/10/03 07:36:44;;;;;;;8.40;5.33;;;;;;;;;;5004403;28;20237;-57
2023/10/03 07:39:13;;;;;;;8.10;5.80;;;;;;;;;;5004455;28;20215;-57
2023/10/03 07:41:40;;;;;;;6.73;5.47;;;;;;;;;;5007596;28;20291;-56
2023/10/03 07:44:07;;;;;;;7.17;5.47;;;;;;;;;;4988653;28;20199;-57
2023/10/03 07:46:33;;;;;;;6.33;5.37;;;;;;;;;;5006578;28;20179;-58
2023/10/03 07:49:01;;;;;;;7.63;5.03;;;;;;;;;;5006035;28;20472;-57
2023/10/03 07:51:29;;;;;;;6.80;4.90;;;;;;;;;;5001425;28;20241;-56
2023/10/03 07:53:55;;;;;;;6.57;5.10;;;;;;;;;;5005118;28;20573;-55
2023/10/03 07:56:32;;;;;;;8.40;4.77;;;;;;;;;;5003151;28;20183;-55
2023/10/03 07:59:02;;;;;;;8.83;5.13;;;;;;;;;;5001743;28;20254;-55
2023/10/03 08:01:31;;;;;;;8.30;5.13;;;;;;;;;;5005626;28;20245;-55
2023/10/03 08:03:58;;;;;;;5.43;4.80;;;;;;;;;;5005239;28;20198;-55
2023/10/03 08:06:25;;;;;;;9.80;5.90;;;;;;;;;;5005860;28;20477;-54
2023/10/03 08:08:52;;;;;;;5.53;4.97;;;;;;;;;;4987147;28;20534;-60
2023/10/03 08:11:22;;;;;;;6.13;5.47;;;;;;;;;;5005748;28;20187;-56
2023/10/03 08:13:49;;;;;;;6.43;4.50;;;;;;;;;;5006094;28;20294;-57
2023/10/03 08:16:16;;;;;;;6.53;4.67;;;;;;;;;;5003086;28;20222;-57
2023/10/03 08:18:46;;;;;;;6.70;4.67;;;;;;;;;;5003289;28;20625;-57
2023/10/03 08:21:15;;;;;;;7.77;5.03;;;;;;;;;;5004447;28;20262;-57
2023/10/03 08:23:41;;;;;;;5.30;4.80;;;;;;;;;;5005918;28;20190;-57
2023/10/03 08:26:10;;;;;;;7.93;5.03;;;;;;;;;;5005877;28;20197;-57
2023/10/03 08:28:38;;;;;;;5.67;4.07;;;;;;;;;;5002141;28;20202;-58
2023/10/03 08:31:06;;;;;;;7.07;4.77;;;;;;;;;;5007219;28;20179;-56
2023/10/03 08:33:36;;;;;;;5.03;4.60;;;;;;;;;;5005287;28;20268;-56
2023/10/03 08:36:14;;;;;;;7.50;4.37;;;;;;;;;;5005350;28;20213;-55
2023/10/03 08:38:43;;;;;;;9.23;4.73;;;;;;;;;;5003531;28;20241;-56
2023/10/03 08:41:15;;;;;;;7.13;4.80;;;;;;;;;;5006510;28;20186;-55
2023/10/03 08:43:41;;;;;;;5.70;5.17;;;;;;;;;;5007064;28;20187;-56
2023/10/03 08:46:11;;;;;;;7.00;4.90;;;;;;;;;;5006761;28;20190;-56
2023/10/03 08:48:43;;;;;;;7.00;4.93;;;;;;;;;;5005993;28;20194;-55
2023/10/03 08:51:13;;;;;;;8.03;5.20;;;;;;;;;;5006878;28;20186;-56
2023/10/03 08:53:40;;;;;;;8.37;5.60;;;;;;;;;;5004194;28;20589;-60
2023/10/03 08:56:08;;;;;;;8.27;5.10;;;;;;;;;;5008374;28;20532;-55
2023/10/03 08:58:35;;;;;;;9.80;5.33;;;;;;;;;;5011066;28;20185;-55
2023/10/03 09:01:04;;;;;;;5.47;4.97;;;;;;;;;;4992878;28;20276;-54
2023/10/03 09:03:47;;;;;;;11.90;5.10;;;;;;;;;;5007257;28;20191;-54
2023/10/03 09:06:23;;;;;;;5.40;4.93;;;;;;;;;;5008397;28;20192;-55
2023/10/03 09:09:09;;;;;;;7.90;5.57;;;;;;;;;;4988593;28;20207;-55
2023/10/03 09:11:38;;;;;;;5.90;4.97;;;;;;;;;;5002882;28;20271;-55
2023/10/03 09:14:05;;;;;;;5.70;5.20;;;;;;;;;;5008658;28;20220;-55
2023/10/03 09:16:38;;;;;;;7.90;6.30;;;;;;;;;;5008898;28;20667;-56
2023/10/03 09:19:04;;;;;;;8.10;4.30;;;;;;;;;;5004842;28;20187;-54
2023/10/03 09:21:30;;;;;;;6.27;4.80;;;;;;;;;;5009688;28;20189;-56
2023/10/03 09:24:01;;;;;;;7.43;5.23;;;;;;;;;;5009267;28;20212;-55
2023/10/03 09:26:46;;;;;;;4.60;4.00;;;;;;;;;;5009195;28;20211;-55
2023/10/03 09:29:18;;;;;;;8.50;5.17;;;;;;;;;;5009730;28;20184;-55
2023/10/03 09:31:48;;;;;;;12.00;5.60;;;;;;;;;;5009410;28;20589;-55
2023/10/03 09:34:16;;;;;;;15.00;5.47;;;;;;;;;;5009956;28;20206;-55
2023/10/03 09:36:42;;;;;;;5.70;5.07;;;;;;;;;;5008956;28;20209;-52
2023/10/03 09:39:20;;;;;;;8.00;4.80;;;;;;;;;;5005572;28;20177;-53
2023/10/03 09:41:49;;;;;;;5.37;4.97;;;;;;;;;;5006441;28;20206;-56
2023/10/03 09:44:19;;;;;;;9.43;5.50;;;;;;;;;;5007379;28;20434;-55
2023/10/03 09:46:52;;;;;;;6.47;5.00;;;;;;;;;;5007993;28;20700;-55
2023/10/03 09:49:19;;;;;;;7.53;6.10;;;;;;;;;;5008749;28;20259;-55
2023/10/03 09:51:51;;;;;;;6.13;5.00;;;;;;;;;;5007546;28;20191;-55
2023/10/03 09:54:30;;;;;;;9.73;5.47;;;;;;;;;;5009276;28;20213;-54
2023/10/03 09:56:57;;;;;;;6.07;5.13;;;;;;;;;;5008232;28;20640;-54
2023/10/03 09:59:32;;;;;;;6.30;4.80;;;;;;;;;;5009387;28;20177;-55
2023/10/03 10:01:59;;;;;;;7.50;5.37;;;;;;;;;;5008644;28;20187;-55
2023/10/03 10:04:27;;;;;;;6.40;4.77;;;;;;;;;;5009503;28;20179;-56
2023/10/03 10:07:01;;;;;;;6.80;4.73;;;;;;;;;;5002499;28;21549;-56
2023/10/03 10:09:34;;;;;;;6.87;6.00;;;;;;;;;;5007737;28;20175;-56
2023/10/03 10:12:14;;;;;;;6.87;5.87;;;;;;;;;;5008120;28;20657;-56
2023/10/03 10:15:01;;;;;;;7.50;6.20;;;;;;;;;;5004267;28;20319;-56
2023/10/03 10:17:45;;;;;;;11.30;7.23;;;;;;;;;;5007731;28;20202;-56
2023/10/03 10:20:17;;;;;;;8.80;7.93;;;;;;;;;;5008885;28;20721;-56
2023/10/03 10:23:02;;;;;;;16.80;7.73;;;;;;;;;;4985363;28;20321;-56
2023/10/03 10:25:41;;;;;;;11.00;8.13;;;;;;;;;;5003454;28;20189;-56
2023/10/03 10:28:09;;;;;;;10.07;8.00;;;;;;;;;;5000764;28;20518;-56
2023/10/03 10:30:35;;;;;;;8.27;7.40;;;;;;;;;;5009985;28;20198;-56
2023/10/03 10:33:22;;;;;;;9.40;8.03;;;;;;;;;;5009120;28;20276;-56
2023/10/03 10:35:54;;;;;;;7.67;6.87;;;;;;;;;;5008729;28;20180;-56
2023/10/03 10:38:21;;;;;;;9.93;8.37;;;;;;;;;;5007643;28;20222;-56
2023/10/03 10:41:06;;;;;;;8.00;7.20;;;;;;;;;;5007506;28;20191;-56
2023/10/03 10:43:35;;;;;;;7.73;6.93;;;;;;;;;;5007556;28;20183;-56
2023/10/03 10:46:19;;;;;;;9.90;7.13;;;;;;;;;;4990769;28;20188;-56
2023/10/03 10:48:46;;;;;;;11.33;7.77;;;;;;;;;;5008580;28;20182;-56
2023/10/03 10:51:12;;;;;;;11.03;6.83;;;;;;;;;;5007664;28;20187;-56
2023/10/03 10:53:46;;;;;;;7.00;5.83;;;;;;;;;;5007744;28;20216;-56
2023/10/03 10:56:16;;;;;;;5.90;5.33;;;;;;;;;;5009175;28;20208;-56
2023/10/03 10:59:04;;;;;;;7.70;6.83;;;;;;;;;;5005961;28;20191;-56
2023/10/03 11:01:31;;;;;;;8.23;4.47;;;;;;;;;;5006888;28;20179;-57
2023/10/03 11:03:57;;;;;;;6.47;3.00;;;;;;;;;;5006554;28;20179;-57
2023/10/03 11:06:23;;;;;;;3.37;3.07;;;;;;;;;;5009078;28;20601;-56
2023/10/03 11:08:50;;;;;;;2.87;2.50;;;;;;;;;;5008781;28;20732;-56
2023/10/03 11:11:17;;;;;;;2.20;2.00;;;;;;;;;;5009245;28;20552;-56
2023/10/03 11:13:50;;;;;;;4.07;2.10;;;;;;;;;;5008770;28;20231;-57
2023/10/03 11:16:26;;;;;;;3.17;1.70;;;;;;;;;;5009421;28;20235;-57
2023/10/03 11:18:54;;;;;;;2.17;1.80;;;;;;;;;;5007095;28;20256;-57
2023/10/03 11:21:20;;;;;;;3.00;1.90;;;;;;;;;;5008067;28;20643;-58
2023/10/03 11:24:07;;;;;;;2.17;1.60;;;;;;;;;;5010985;28;20190;-57
2023/10/03 11:26:42;;;;;;;2.27;1.57;;;;;;;;;;5002195;28;20822;-56
2023/10/03 11:29:08;;;;;;;2.00;1.60;;;;;;;;;;5008823;28;20273;-59
2023/10/03 11:31:41;;;;;;;4.17;1.87;;;;;;;;;;5008658;28;20282;-56
2023/10/03 11:34:07;;;;;;;2.73;1.80;;;;;;;;;;4991118;28;20206;-56
2023/10/03 11:36:40;;;;;;;2.47;1.60;;;;;;;;;;5008641;28;20187;-57
2023/10/03 11:39:07;;;;;;;3.70;1.63;;;;;;;;;;5007706;28;20183;-56
2023/10/03 11:41:33;;;;;;;1.83;1.40;;;;;;;;;;5009061;28;20557;-56
2023/10/03 11:44:00;;;;;;;1.90;1.70;;;;;;;;;;5004818;28;20190;-56
2023/10/03 11:46:27;;;;;;;3.60;2.10;;;;;;;;;;5008163;28;20210;-56
2023/10/03 11:48:59;;;;;;;4.53;2.67;;;;;;;;;;5007920;28;20187;-53
2023/10/03 11:51:25;;;;;;;3.53;1.93;;;;;;;;;;5006876;28;20233;-53
2023/10/03 11:53:53;;;;;;;2.73;1.60;;;;;;;;;;5007768;28;21007;-55
2023/10/03 11:56:19;;;;;;;3.20;1.80;;;;;;;;;;5007735;28;20205;-53
2023/10/03 11:58:45;;;;;;;1.97;1.87;;;;;;;;;;5008470;28;20189;-56
2023/10/03 12:01:12;;;;;;;3.63;2.70;;;;;;;;;;5008488;28;20181;-55
2023/10/03 12:03:38;;;;;;;4.50;2.10;;;;;;;;;;5007426;28;20529;-56
2023/10/03 12:06:05;;;;;;;3.47;2.07;;;;;;;;;;5007697;28;20187;-55
2023/10/03 12:08:40;;;;;;;3.33;2.03;;;;;;;;;;5006587;28;20186;-55
2023/10/03 12:11:07;;;;;;;4.37;2.53;;;;;;;;;;5007537;28;20182;-54
2023/10/03 12:13:33;;;;;;;2.53;1.83;;;;;;;;;;5008433;28;20210;-54
2023/10/03 12:15:59;;;;;;;2.58;1.70;;;;;;;;;;5006782;28;20463;-54
2023/10/03 12:18:26;;;;;;;3.80;1.70;;;;;;;;;;5007753;28;20244;-53
2023/10/03 12:20:52;;;;;;;2.90;1.50;;;;;;;;;;5006913;28;20240;-54
2023/10/03 12:23:19;;;;;;;2.83;2.27;;;;;;;;;;5007526;28;20190;-54
2023/10/03 12:25:45;;;;;;;2.07;1.60;;;;;;;;;;5008682;28;20178;-54
2023/10/03 12:28:12;;;;;;;2.37;1.50;;;;;;;;;;5007544;28;20646;-53
2023/10/03 12:30:38;;;;;;;1.60;1.50;;;;;;;;;;5007638;28;20210;-54
2023/10/03 12:33:04;;;;;;;2.23;1.80;;;;;;;;;;5007425;28;20701;-54
2023/10/03 12:35:30;;;;;;;4.00;1.77;;;;;;;;;;5005804;28;20190;-53
2023/10/03 12:37:58;;;;;;;2.60;2.00;;;;;;;;;;5006569;28;20191;-53
2023/10/03 12:40:25;;;;;;;3.53;1.83;;;;;;;;;;5008627;28;20604;-53
2023/10/03 12:42:52;;;;;;;3.23;1.90;;;;;;;;;;5007077;28;20288;-54
2023/10/03 12:45:20;;;;;;;3.30;2.20;;;;;;;;;;5007705;28;20641;-53
2023/10/03 12:47:52;;;;;;;2.50;2.30;;;;;;;;;;5007178;28;20178;-53
2023/10/03 12:50:25;;;;;;;4.70;2.10;;;;;;;;;;5006379;28;20183;-54
2023/10/03 12:52:51;;;;;;;2.27;1.57;;;;;;;;;;5007456;28;20545;-57
2023/10/03 12:55:18;;;;;;;2.90;1.83;;;;;;;;;;5008661;28;20181;-56
2023/10/03 12:57:46;;;;;;;1.50;1.40;;;;;;;;;;5005606;28;20178;-56
2023/10/03 13:00:12;;;;;;;1.97;1.70;;;;;;;;;;5007727;28;20627;-57
2023/10/03 13:02:44;;;;;;;1.73;1.63;;;;;;;;;;5007939;28;20215;-56
2023/10/03 13:05:12;;;;;;;1.60;1.50;;;;;;;;;;5007504;28;20606;-57
2023/10/03 13:07:38;;;;;;;2.60;1.30;;;;;;;;;;5007373;28;20201;-56
2023/10/03 13:10:06;;;;;;;2.53;1.50;;;;;;;;;;5007746;28;20331;-57
2023/10/03 13:12:33;;;;;;;2.00;1.80;;;;;;;;;;5004974;28;20704;-57
2023/10/03 13:15:00;;;;;;;3.03;1.60;;;;;;;;;;5004749;28;20656;-57
2023/10/03 13:17:27;;;;;;;1.80;1.70;;;;;;;;;;5002102;28;20587;-57
2023/10/03 13:19:59;;;;;;;1.70;1.60;;;;;;;;;;5007633;28;20189;-57
2023/10/03 13:22:26;;;;;;;2.03;1.70;;;;;;;;;;5005770;28;20789;-57
2023/10/03 13:24:53;;;;;;;1.80;1.70;;;;;;;;;;5007957;28;20187;-57
2023/10/03 13:27:19;;;;;;;2.00;1.50;;;;;;;;;;5007261;28;20589;-57
2023/10/03 13:29:45;;;;;;;2.53;1.47;;;;;;;;;;4990360;28;20542;-57
2023/10/03 13:32:12;;;;;;;2.10;1.80;;;;;;;;;;5006725;28;20230;-57
2023/10/03 13:34:38;;;;;;;1.90;1.67;;;;;;;;;;5005637;28;20221;-56
2023/10/03 13:37:04;;;;;;;4.20;1.90;;;;;;;;;;4989237;28;20191;-57
2023/10/03 13:39:30;;;;;;;1.87;1.63;;;;;;;;;;5007032;28;20216;-57
2023/10/03 13:41:57;;;;;;;1.90;1.60;;;;;;;;;;5007991;28;20202;-56
2023/10/03 13:44:25;;;;;;;2.37;1.90;;;;;;;;;;5012030;28;20202;-56
2023/10/03 13:46:51;;;;;;;2.00;1.67;;;;;;;;;;5010159;28;20194;-57
2023/10/03 13:49:19;;;;;;;4.33;2.10;;;;;;;;;;5008386;28;20669;-57
2023/10/03 13:51:46;;;;;;;1.50;1.40;;;;;;;;;;5010656;28;20197;-57
2023/10/03 13:54:13;;;;;;;1.67;1.50;;;;;;;;;;5009097;28;20210;-57
2023/10/03 13:56:39;;;;;;;1.70;1.60;;;;;;;;;;5009305;28;20175;-55
2023/10/03 13:59:05;;;;;;;2.00;1.90;;;;;;;;;;5010345;28;20651;-55
2023/10/03 14:01:31;;;;;;;2.87;1.70;;;;;;;;;;5011013;28;20211;-55
2023/10/03 14:03:58;;;;;;;1.60;1.50;;;;;;;;;;5007193;28;20207;-54
2023/10/03 14:06:29;;;;;;;1.67;1.57;;;;;;;;;;5010548;28;20665;-55
2023/10/03 14:08:56;;;;;;;5.10;1.93;;;;;;;;;;5009730;28;20197;-55
2023/10/03 14:11:26;;;;;;;2.43;1.60;;;;;;;;;;5008742;28;20650;-55
2023/10/03 14:13:55;;;;;;;1.63;1.40;;;;;;;;;;5010051;28;20210;-55
2023/10/03 14:16:22;;;;;;;1.77;1.50;;;;;;;;;;5009632;28;20336;-54
2023/10/03 14:18:50;;;;;;;2.07;1.53;;;;;;;;;;5008610;28;20174;-55
2023/10/03 14:21:16;;;;;;;2.63;2.53;;;;;;;;;;5010524;28;20206;-56
2023/10/03 14:23:43;;;;;;;1.53;1.43;;;;;;;;;;5008398;28;20186;-55
2023/10/03 14:26:09;;;;;;;3.00;1.60;;;;;;;;;;5009670;28;20247;-53
2023/10/03 14:28:35;;;;;;;2.67;1.50;;;;;;;;;;5005212;28;20194;-53
2023/10/03 14:31:02;;;;;;;1.60;1.50;;;;;;;;;;5008209;28;20190;-53
2023/10/03 14:33:29;;;;;;;1.60;1.50;;;;;;;;;;5010778;28;20202;-54
2023/10/03 14:35:59;;;;;;;1.80;1.50;;;;;;;;;;5007904;28;20183;-53
2023/10/03 14:38:25;;;;;;;1.50;1.40;;;;;;;;;;5007080;28;20221;-53
2023/10/03 14:40:53;;;;;;;3.60;1.63;;;;;;;;;;5010541;28;20700;-54
2023/10/03 14:43:19;;;;;;;1.90;1.70;;;;;;;;;;5011193;28;20202;-53